Time;durP1;ratioP1;P1;durP2;ratioP2;P2;SDS_P1;SDS_P2;PMS_P1;PMS_P2;Temp;Humidity;BMP_temperature;BMP_pressure;BME280_temperature;BME280_humidity;BME280_pressure;Samples;Min_cycle;Max_cycle;Signal;HPM_P1;HPM_P2
2022/03/04 00:00:19;;;;;;;;;;;21.20;35.50;;;;;;688390;28;847;-82
2022/03/04 00:00:40;;;;;;;;;;;21.20;35.50;;;;;;685549;28;1360;-83
2022/03/04 00:01:00;;;;;;;;;;;21.20;36.60;;;;;;682770;29;1080;-83
2022/03/04 00:01:21;;;;;;;;;;;21.20;35.50;;;;;;680320;29;1333;-83
2022/03/04 00:01:43;;;;;;;;;;;21.20;35.50;;;;;;680567;29;871;-83
2022/03/04 00:02:05;;;;;;;;;;;21.20;35.50;;;;;;683029;29;909;-83
2022/03/04 00:02:25;;;;;;;;;;;21.20;35.50;;;;;;683653;28;934;-83
2022/03/04 00:02:46;;;;;;;;;;;21.20;35.50;;;;;;683635;28;1397;-82
2022/03/04 00:03:06;;;;;;;;;;;21.20;35.60;;;;;;686226;28;894;-82
2022/03/04 00:03:28;;;;;;;;;;;21.20;35.50;;;;;;685583;28;1105;-82
2022/03/04 00:03:49;;;;;;;;;;;21.20;35.50;;;;;;682929;29;910;-82
2022/03/04 00:04:09;;;;;;;;;;;21.20;35.40;;;;;;682917;29;815;-83
2022/03/04 00:04:32;;;;;;;;;;;21.20;35.40;;;;;;683194;28;1907;-84
2022/03/04 00:04:53;;;;;;;;;;;21.20;35.40;;;;;;685821;28;815;-83
2022/03/04 00:05:13;;;;;;;;;;;21.20;35.40;;;;;;683500;28;1104;-83
2022/03/04 00:05:34;;;;;;;;;;;21.20;35.50;;;;;;686249;28;866;-83
2022/03/04 00:05:54;;;;;;;;;;;21.20;35.50;;;;;;688491;28;882;-83
2022/03/04 00:06:15;;;;;;;;;;;21.20;35.50;;;;;;685477;28;1292;-83
2022/03/04 00:06:35;;;;;;;;;;;21.20;35.50;;;;;;685680;28;803;-83
2022/03/04 00:06:56;;;;;;;;;;;21.20;35.30;;;;;;685909;28;937;-83
2022/03/04 00:07:16;;;;;;;;;;;21.20;35.30;;;;;;685581;28;941;-82
2022/03/04 00:07:37;;;;;;;;;;;21.20;35.30;;;;;;685707;28;843;-83
2022/03/04 00:07:57;;;;;;;;;;;21.20;35.30;;;;;;685926;28;815;-84
2022/03/04 00:08:19;;;;;;;;;;;21.20;35.40;;;;;;688379;28;890;-83
2022/03/04 00:08:39;;;;;;;;;;;21.20;35.40;;;;;;688350;28;869;-83
2022/03/04 00:09:00;;;;;;;;;;;21.20;35.40;;;;;;688541;28;1575;-83
2022/03/04 00:09:21;;;;;;;;;;;21.20;35.30;;;;;;691013;28;862;-83
2022/03/04 00:09:42;;;;;;;;;;;21.20;35.40;;;;;;691006;28;802;-83
2022/03/04 00:10:02;;;;;;;;;;;21.20;35.30;;;;;;688368;28;858;-83
2022/03/04 00:10:23;;;;;;;;;;;21.20;35.30;;;;;;685577;28;1126;-83
2022/03/04 00:10:44;;;;;;;;;;;21.20;35.20;;;;;;682860;29;1473;-82
2022/03/04 00:11:04;;;;;;;;;;;21.20;35.20;;;;;;682974;29;958;-82
2022/03/04 00:11:25;;;;;;;;;;;21.20;35.10;;;;;;683083;29;850;-83
2022/03/04 00:11:45;;;;;;;;;;;21.20;35.20;;;;;;683308;28;918;-85
2022/03/04 00:12:07;;;;;;;;;;;21.20;35.20;;;;;;685939;28;1286;-83
2022/03/04 00:12:28;;;;;;;;;;;21.20;35.10;;;;;;688745;28;869;-85
2022/03/04 00:12:49;;;;;;;;;;;21.20;35.20;;;;;;688423;28;866;-83
2022/03/04 00:13:09;;;;;;;;;;;21.20;35.10;;;;;;685475;28;1206;-83
2022/03/04 00:13:31;;;;;;;;;;;21.20;35.00;;;;;;682807;29;1210;-84
2022/03/04 00:13:51;;;;;;;;;;;21.30;35.20;;;;;;682836;28;1624;-84
2022/03/04 00:14:12;;;;;;;;;;;21.20;35.10;;;;;;682918;29;1329;-84
2022/03/04 00:14:32;;;;;;;;;;;21.20;35.10;;;;;;683173;28;1195;-83
2022/03/04 00:14:53;;;;;;;;;;;21.20;35.10;;;;;;682914;29;1495;-83
2022/03/04 00:15:13;;;;;;;;;;;21.20;35.10;;;;;;682913;29;870;-83
2022/03/04 00:15:34;;;;;;;;;;;21.20;35.10;;;;;;683011;29;899;-84
2022/03/04 00:15:55;;;;;;;;;;;21.20;35.10;;;;;;683302;28;874;-83
2022/03/04 00:16:15;;;;;;;;;;;21.20;35.00;;;;;;683292;28;851;-82
2022/03/04 00:16:36;;;;;;;;;;;21.20;35.10;;;;;;685409;28;1324;-83
2022/03/04 00:16:57;;;;;;;;;;;21.20;35.00;;;;;;688334;28;831;-83
2022/03/04 00:17:17;;;;;;;;;;;21.20;35.10;;;;;;688180;28;1162;-83
2022/03/04 00:17:38;;;;;;;;;;;21.20;35.00;;;;;;685465;28;1209;-83
2022/03/04 00:17:58;;;;;;;;;;;21.20;35.00;;;;;;685532;28;1365;-83
2022/03/04 00:18:19;;;;;;;;;;;21.20;35.10;;;;;;683206;28;1398;-83
2022/03/04 00:18:40;;;;;;;;;;;21.20;35.00;;;;;;685562;28;954;-83
2022/03/04 00:19:07;;;;;;;;;;;21.20;35.00;;;;;;682875;29;1436;-83
2022/03/04 00:19:27;;;;;;;;;;;21.20;34.90;;;;;;682242;29;1144;-83
2022/03/04 00:19:48;;;;;;;;;;;21.20;34.90;;;;;;680366;29;1537;-83
2022/03/04 00:20:09;;;;;;;;;;;21.20;34.90;;;;;;681458;29;851;-82
2022/03/04 00:20:30;;;;;;;;;;;21.20;34.80;;;;;;680667;29;898;-83
2022/03/04 00:20:51;;;;;;;;;;;21.20;34.80;;;;;;684669;28;1255;-83
2022/03/04 00:21:11;;;;;;;;;;;21.20;34.90;;;;;;686635;28;823;-84
2022/03/04 00:21:38;;;;;;;;;;;21.20;34.80;;;;;;689268;28;902;-84
2022/03/04 00:21:58;;;;;;;;;;;21.20;34.80;;;;;;691526;28;905;-83
2022/03/04 00:22:19;;;;;;;;;;;21.20;34.80;;;;;;688987;28;1208;-83
2022/03/04 00:22:40;;;;;;;;;;;21.20;34.90;;;;;;687548;28;1180;-83
2022/03/04 00:23:00;;;;;;;;;;;21.20;34.80;;;;;;686131;28;973;-83
2022/03/04 00:23:21;;;;;;;;;;;21.20;34.80;;;;;;686325;28;854;-83
2022/03/04 00:23:42;;;;;;;;;;;21.20;34.70;;;;;;683357;29;1209;-84
2022/03/04 00:24:03;;;;;;;;;;;21.20;34.80;;;;;;683804;28;854;-83
2022/03/04 00:24:24;;;;;;;;;;;21.20;34.80;;;;;;686587;28;918;-83
2022/03/04 00:24:45;;;;;;;;;;;21.20;34.70;;;;;;686026;28;1969;-83
2022/03/04 00:25:06;;;;;;;;;;;21.10;34.70;;;;;;686209;28;791;-83
2022/03/04 00:25:27;;;;;;;;;;;21.20;34.70;;;;;;686124;28;1518;-82
2022/03/04 00:25:47;;;;;;;;;;;21.20;34.80;;;;;;688930;28;878;-83
2022/03/04 00:26:08;;;;;;;;;;;21.20;34.70;;;;;;688913;28;838;-82
2022/03/04 00:26:29;;;;;;;;;;;21.20;34.70;;;;;;689121;28;870;-83
2022/03/04 00:26:50;;;;;;;;;;;21.20;34.60;;;;;;688836;28;886;-83
2022/03/04 00:27:11;;;;;;;;;;;21.20;34.70;;;;;;688857;28;879;-83
2022/03/04 00:27:31;;;;;;;;;;;21.10;34.60;;;;;;688740;28;1088;-83
2022/03/04 00:27:52;;;;;;;;;;;21.10;34.70;;;;;;688890;28;874;-84
2022/03/04 00:28:12;;;;;;;;;;;21.10;34.60;;;;;;688808;28;866;-83
2022/03/04 00:28:33;;;;;;;;;;;21.20;34.70;;;;;;688812;28;886;-84
2022/03/04 00:28:53;;;;;;;;;;;21.20;34.70;;;;;;689184;28;798;-83
2022/03/04 00:29:14;;;;;;;;;;;21.10;34.50;;;;;;690981;28;890;-83
2022/03/04 00:29:35;;;;;;;;;;;21.10;34.50;;;;;;688657;28;1373;-83
2022/03/04 00:29:56;;;;;;;;;;;21.10;34.60;;;;;;686148;28;1095;-83
2022/03/04 00:30:16;;;;;;;;;;;21.10;34.50;;;;;;686375;28;815;-82
2022/03/04 00:30:37;;;;;;;;;;;21.10;34.60;;;;;;686081;28;934;-83
2022/03/04 00:30:57;;;;;;;;;;;21.20;34.60;;;;;;686112;28;787;-83
2022/03/04 00:31:18;;;;;;;;;;;21.10;34.50;;;;;;685805;28;902;-83
2022/03/04 00:31:39;;;;;;;;;;;21.10;34.50;;;;;;686336;28;542;-83
2022/03/04 00:31:59;;;;;;;;;;;21.10;34.50;;;;;;688754;28;882;-83
2022/03/04 00:32:20;;;;;;;;;;;21.10;34.50;;;;;;688864;28;898;-83
2022/03/04 00:32:41;;;;;;;;;;;21.10;34.50;;;;;;685999;28;1321;-83
2022/03/04 00:33:01;;;;;;;;;;;21.10;34.60;;;;;;686471;28;854;-83
2022/03/04 00:33:22;;;;;;;;;;;21.10;34.50;;;;;;688942;28;827;-84
2022/03/04 00:33:42;;;;;;;;;;;21.10;34.40;;;;;;688779;28;895;-83
2022/03/04 00:34:06;;;;;;;;;;;21.10;34.40;;;;;;688836;28;874;-83
2022/03/04 00:34:26;;;;;;;;;;;21.10;34.50;;;;;;686683;28;1460;-83
2022/03/04 00:34:47;;;;;;;;;;;21.10;34.40;;;;;;688969;28;834;-82
2022/03/04 00:35:08;;;;;;;;;;;21.10;34.40;;;;;;688869;28;834;-82
2022/03/04 00:35:29;;;;;;;;;;;21.10;34.40;;;;;;688940;28;830;-83
2022/03/04 00:35:50;;;;;;;;;;;21.10;34.30;;;;;;688921;28;803;-83
2022/03/04 00:36:10;;;;;;;;;;;21.10;34.40;;;;;;688864;28;842;-82
2022/03/04 00:36:31;;;;;;;;;;;21.10;34.40;;;;;;689068;28;779;-83
2022/03/04 00:36:51;;;;;;;;;;;21.10;34.30;;;;;;691156;28;963;-83
2022/03/04 00:37:12;;;;;;;;;;;21.10;34.50;;;;;;691462;28;1125;-82
2022/03/04 00:37:32;;;;;;;;;;;21.10;34.30;;;;;;691531;28;826;-86
2022/03/04 00:37:53;;;;;;;;;;;21.10;34.40;;;;;;691625;28;894;-84
2022/03/04 00:38:14;;;;;;;;;;;21.10;34.40;;;;;;691569;28;945;-82
2022/03/04 00:38:34;;;;;;;;;;;21.10;34.30;;;;;;688430;28;1230;-83
2022/03/04 00:38:56;;;;;;;;;;;21.10;34.30;;;;;;686458;28;839;-83
2022/03/04 00:39:16;;;;;;;;;;;21.10;34.40;;;;;;688814;28;859;-82
2022/03/04 00:39:37;;;;;;;;;;;21.10;34.30;;;;;;688895;28;870;-82
2022/03/04 00:39:57;;;;;;;;;;;21.10;34.30;;;;;;688846;28;506;-82
2022/03/04 00:40:18;;;;;;;;;;;21.10;34.40;;;;;;688835;28;1285;-82
2022/03/04 00:40:39;;;;;;;;;;;21.10;34.30;;;;;;685921;28;899;-82
2022/03/04 00:40:59;;;;;;;;;;;21.10;34.40;;;;;;686224;28;811;-83
2022/03/04 00:41:21;;;;;;;;;;;21.10;34.50;;;;;;683483;29;1221;-81
2022/03/04 00:41:42;;;;;;;;;;;21.10;34.40;;;;;;683476;29;791;-83
2022/03/04 00:42:03;;;;;;;;;;;21.10;34.30;;;;;;683489;29;1505;-84
2022/03/04 00:42:23;;;;;;;;;;;21.10;34.30;;;;;;684150;28;883;-82
2022/03/04 00:42:44;;;;;;;;;;;21.10;34.40;;;;;;686160;28;808;-82
2022/03/04 00:43:04;;;;;;;;;;;21.10;34.40;;;;;;686907;28;859;-83
2022/03/04 00:43:25;;;;;;;;;;;21.10;34.50;;;;;;689164;28;822;-81
2022/03/04 00:43:46;;;;;;;;;;;21.00;34.40;;;;;;690855;28;929;-83
2022/03/04 00:44:07;;;;;;;;;;;21.10;34.50;;;;;;691021;28;945;-82
2022/03/04 00:44:27;;;;;;;;;;;21.10;34.40;;;;;;693177;28;1110;-84
2022/03/04 00:44:48;;;;;;;;;;;21.10;34.40;;;;;;694041;28;1899;-83
2022/03/04 00:45:08;;;;;;;;;;;21.10;34.40;;;;;;693744;28;846;-83
2022/03/04 00:45:29;;;;;;;;;;;21.10;34.50;;;;;;693142;28;962;-84
2022/03/04 00:45:50;;;;;;;;;;;21.10;34.50;;;;;;693370;28;1024;-81
2022/03/04 00:46:11;;;;;;;;;;;21.10;34.40;;;;;;691490;28;770;-83
2022/03/04 00:46:32;;;;;;;;;;;21.10;34.50;;;;;;691402;28;1212;-82
2022/03/04 00:46:53;;;;;;;;;;;21.10;34.40;;;;;;691577;28;779;-82
2022/03/04 00:47:13;;;;;;;;;;;21.10;34.50;;;;;;691547;28;787;-82
2022/03/04 00:47:34;;;;;;;;;;;21.10;34.50;;;;;;691550;28;830;-85
2022/03/04 00:47:54;;;;;;;;;;;21.10;34.50;;;;;;691443;28;1370;-85
2022/03/04 00:48:15;;;;;;;;;;;21.10;34.50;;;;;;691474;28;834;-82
2022/03/04 00:48:35;;;;;;;;;;;21.10;34.50;;;;;;691432;28;934;-83
2022/03/04 00:48:56;;;;;;;;;;;21.10;34.40;;;;;;688731;28;898;-83
2022/03/04 00:49:17;;;;;;;;;;;21.10;34.50;;;;;;685481;28;1444;-82
2022/03/04 00:49:37;;;;;;;;;;;21.10;34.40;;;;;;686140;28;808;-84
2022/03/04 00:49:58;;;;;;;;;;;21.10;35.50;;;;;;686025;28;921;-83
2022/03/04 00:50:18;;;;;;;;;;;21.10;34.40;;;;;;686242;28;822;-82
2022/03/04 00:50:39;;;;;;;;;;;21.10;34.50;;;;;;685996;28;1557;-82
2022/03/04 00:51:00;;;;;;;;;;;21.10;34.60;;;;;;686303;28;891;-83
2022/03/04 00:51:21;;;;;;;;;;;21.10;34.50;;;;;;688924;28;890;-83
2022/03/04 00:51:41;;;;;;;;;;;21.10;34.50;;;;;;688811;28;898;-82
2022/03/04 00:52:02;;;;;;;;;;;21.10;34.50;;;;;;688616;28;1222;-82
2022/03/04 00:52:22;;;;;;;;;;;21.10;34.50;;;;;;688877;28;850;-83
2022/03/04 00:52:43;;;;;;;;;;;21.10;34.40;;;;;;688829;28;799;-84
2022/03/04 00:53:04;;;;;;;;;;;21.10;35.60;;;;;;688677;28;1001;-82
2022/03/04 00:53:24;;;;;;;;;;;21.10;34.50;;;;;;688886;28;846;-83
2022/03/04 00:53:45;;;;;;;;;;;21.10;34.50;;;;;;688780;28;871;-81
2022/03/04 00:54:05;;;;;;;;;;;21.10;34.50;;;;;;688961;28;843;-82
2022/03/04 00:54:26;;;;;;;;;;;21.10;34.50;;;;;;688922;28;788;-83
2022/03/04 00:54:47;;;;;;;;;;;21.10;34.50;;;;;;689111;28;894;-83
2022/03/04 00:55:07;;;;;;;;;;;21.10;34.60;;;;;;688885;28;807;-83
2022/03/04 00:55:28;;;;;;;;;;;21.10;34.50;;;;;;689033;28;850;-83
2022/03/04 00:55:49;;;;;;;;;;;21.10;34.50;;;;;;689146;28;842;-83
2022/03/04 00:56:10;;;;;;;;;;;21.00;34.50;;;;;;688912;28;834;-83
2022/03/04 00:56:30;;;;;;;;;;;21.00;34.50;;;;;;689019;28;906;-83
2022/03/04 00:56:51;;;;;;;;;;;21.00;34.40;;;;;;691478;28;1248;-84
2022/03/04 00:57:12;;;;;;;;;;;21.00;34.40;;;;;;691328;28;924;-83
2022/03/04 00:57:32;;;;;;;;;;;21.00;34.50;;;;;;688666;28;1195;-83
2022/03/04 00:57:53;;;;;;;;;;;21.00;34.50;;;;;;688872;28;847;-83
2022/03/04 00:58:13;;;;;;;;;;;21.00;34.50;;;;;;688640;28;1305;-82
2022/03/04 00:58:34;;;;;;;;;;;21.10;34.50;;;;;;688810;28;921;-83
2022/03/04 00:58:54;;;;;;;;;;;21.00;34.50;;;;;;688842;28;867;-83
2022/03/04 00:59:15;;;;;;;;;;;21.10;34.40;;;;;;685861;28;1222;-83
2022/03/04 00:59:36;;;;;;;;;;;21.00;34.40;;;;;;686096;28;867;-83
2022/03/04 00:59:56;;;;;;;;;;;21.00;34.40;;;;;;683617;28;1498;-83
2022/03/04 01:00:17;;;;;;;;;;;21.00;34.40;;;;;;686166;28;831;-82
2022/03/04 01:00:37;;;;;;;;;;;21.00;34.40;;;;;;683315;29;1201;-82
2022/03/04 01:00:58;;;;;;;;;;;21.00;34.50;;;;;;683666;28;808;-84
2022/03/04 01:01:18;;;;;;;;;;;21.10;34.60;;;;;;686133;28;803;-83
2022/03/04 01:01:39;;;;;;;;;;;21.00;34.60;;;;;;686281;28;816;-82
2022/03/04 01:01:59;;;;;;;;;;;21.10;34.60;;;;;;685933;28;1171;-83
2022/03/04 01:02:20;;;;;;;;;;;21.00;34.60;;;;;;686412;28;822;-83
2022/03/04 01:02:40;;;;;;;;;;;21.10;34.60;;;;;;688696;28;874;-83
2022/03/04 01:03:02;;;;;;;;;;;21.00;34.50;;;;;;688689;28;775;-84
2022/03/04 01:03:23;;;;;;;;;;;21.00;34.50;;;;;;688806;28;823;-83
2022/03/04 01:03:43;;;;;;;;;;;21.00;34.50;;;;;;688785;28;803;-83
2022/03/04 01:04:04;;;;;;;;;;;21.00;34.50;;;;;;688908;28;779;-84
2022/03/04 01:04:25;;;;;;;;;;;21.00;34.50;;;;;;689112;28;799;-82
2022/03/04 01:04:45;;;;;;;;;;;21.00;34.50;;;;;;688878;28;1886;-83
2022/03/04 01:05:06;;;;;;;;;;;21.00;34.60;;;;;;688667;28;1234;-82
2022/03/04 01:05:26;;;;;;;;;;;21.00;34.50;;;;;;688720;28;898;-84
2022/03/04 01:05:47;;;;;;;;;;;21.00;34.50;;;;;;688864;28;843;-82
2022/03/04 01:06:08;;;;;;;;;;;21.00;34.50;;;;;;688766;28;834;-82
2022/03/04 01:06:28;;;;;;;;;;;21.00;34.50;;;;;;686013;28;851;-83
2022/03/04 01:06:49;;;;;;;;;;;21.00;34.40;;;;;;686404;28;1075;-82
2022/03/04 01:07:09;;;;;;;;;;;21.00;34.40;;;;;;685913;28;1105;-83
2022/03/04 01:07:30;;;;;;;;;;;21.00;34.50;;;;;;683355;29;1520;-83
2022/03/04 01:07:51;;;;;;;;;;;21.00;34.30;;;;;;683539;29;815;-82
2022/03/04 01:08:12;;;;;;;;;;;21.00;34.40;;;;;;680988;29;1329;-82
2022/03/04 01:08:32;;;;;;;;;;;21.00;34.40;;;;;;683443;29;846;-82
2022/03/04 01:08:53;;;;;;;;;;;21.00;34.30;;;;;;683960;28;780;-83
2022/03/04 01:09:14;;;;;;;;;;;21.00;34.30;;;;;;686360;28;867;-83
2022/03/04 01:09:34;;;;;;;;;;;21.00;34.20;;;;;;688750;28;827;-83
2022/03/04 01:09:55;;;;;;;;;;;21.00;34.30;;;;;;685970;28;1111;-83
2022/03/04 01:10:16;;;;;;;;;;;21.00;34.40;;;;;;688731;28;807;-83
2022/03/04 01:10:37;;;;;;;;;;;21.00;34.30;;;;;;688720;28;827;-82
2022/03/04 01:10:58;;;;;;;;;;;21.00;34.30;;;;;;685926;28;1322;-83
2022/03/04 01:11:18;;;;;;;;;;;21.00;34.30;;;;;;686105;28;907;-83
2022/03/04 01:11:39;;;;;;;;;;;21.00;34.40;;;;;;686526;28;779;-83
2022/03/04 01:11:59;;;;;;;;;;;21.00;34.50;;;;;;688715;28;894;-83
2022/03/04 01:12:20;;;;;;;;;;;21.00;34.60;;;;;;686053;28;1328;-83
2022/03/04 01:12:41;;;;;;;;;;;21.00;34.50;;;;;;686536;28;787;-83
2022/03/04 01:13:02;;;;;;;;;;;21.00;34.50;;;;;;688775;28;842;-83
2022/03/04 01:13:23;;;;;;;;;;;21.00;35.80;;;;;;688778;28;875;-83
2022/03/04 01:13:43;;;;;;;;;;;21.00;34.60;;;;;;688728;28;878;-83
2022/03/04 01:14:05;;;;;;;;;;;21.00;34.70;;;;;;688661;28;958;-82
2022/03/04 01:14:26;;;;;;;;;;;21.00;34.70;;;;;;688540;28;1520;-82
2022/03/04 01:14:47;;;;;;;;;;;21.00;34.60;;;;;;688835;28;811;-83
2022/03/04 01:15:08;;;;;;;;;;;21.00;34.70;;;;;;688678;28;862;-82
2022/03/04 01:15:29;;;;;;;;;;;21.00;34.80;;;;;;688682;28;1213;-83
2022/03/04 01:15:50;;;;;;;;;;;21.00;34.70;;;;;;688872;28;811;-83
2022/03/04 01:16:10;;;;;;;;;;;21.00;34.70;;;;;;688674;28;779;-83
2022/03/04 01:16:31;;;;;;;;;;;21.00;34.70;;;;;;691204;28;1226;-83
2022/03/04 01:16:51;;;;;;;;;;;21.20;34.80;;;;;;688789;28;1221;-82
2022/03/04 01:17:12;;;;;;;;;;;21.00;34.70;;;;;;685761;28;1495;-83
2022/03/04 01:17:33;;;;;;;;;;;21.00;34.60;;;;;;685990;28;803;-83
2022/03/04 01:17:53;;;;;;;;;;;21.00;34.70;;;;;;686196;28;824;-82
2022/03/04 01:18:14;;;;;;;;;;;21.00;34.70;;;;;;686034;28;878;-82
2022/03/04 01:18:34;;;;;;;;;;;21.00;34.80;;;;;;685550;28;1202;-83
2022/03/04 01:18:55;;;;;;;;;;;21.00;34.80;;;;;;686375;28;791;-82
2022/03/04 01:19:15;;;;;;;;;;;21.00;34.80;;;;;;688888;28;787;-83
2022/03/04 01:19:36;;;;;;;;;;;21.00;34.70;;;;;;685896;28;1373;-83
2022/03/04 01:19:57;;;;;;;;;;;21.00;34.80;;;;;;682917;29;1205;-83
2022/03/04 01:20:17;;;;;;;;;;;21.00;34.80;;;;;;683688;28;870;-82
2022/03/04 01:20:38;;;;;;;;;;;21.00;34.70;;;;;;685970;28;795;-82
2022/03/04 01:20:59;;;;;;;;;;;21.00;34.70;;;;;;686029;28;893;-82
2022/03/04 01:21:19;;;;;;;;;;;21.00;34.70;;;;;;685991;28;870;-83
2022/03/04 01:21:40;;;;;;;;;;;21.00;34.70;;;;;;686264;28;922;-83
2022/03/04 01:22:01;;;;;;;;;;;21.00;34.80;;;;;;688654;28;811;-82
2022/03/04 01:22:21;;;;;;;;;;;21.00;34.80;;;;;;688735;28;926;-83
2022/03/04 01:22:42;;;;;;;;;;;21.00;34.80;;;;;;688656;28;800;-83
2022/03/04 01:23:03;;;;;;;;;;;21.00;34.80;;;;;;688738;28;874;-83
2022/03/04 01:23:23;;;;;;;;;;;21.00;34.80;;;;;;686032;28;1496;-83
2022/03/04 01:23:44;;;;;;;;;;;21.00;34.70;;;;;;685779;28;1257;-83
2022/03/04 01:24:05;;;;;;;;;;;21.00;34.70;;;;;;688652;28;957;-83
2022/03/04 01:24:25;;;;;;;;;;;21.00;34.80;;;;;;688675;28;1316;-82
2022/03/04 01:24:46;;;;;;;;;;;21.00;34.70;;;;;;685978;28;1963;-83
2022/03/04 01:25:07;;;;;;;;;;;21.00;34.80;;;;;;683533;28;1301;-83
2022/03/04 01:25:27;;;;;;;;;;;21.00;34.80;;;;;;685913;28;1021;-83
2022/03/04 01:25:52;;;;;;;;;;;21.00;34.60;;;;;;686019;28;969;-83
2022/03/04 01:26:13;;;;;;;;;;;21.00;34.70;;;;;;686056;28;815;-81
2022/03/04 01:26:33;;;;;;;;;;;21.00;34.60;;;;;;686810;28;839;-83
2022/03/04 01:26:54;;;;;;;;;;;21.00;34.70;;;;;;689728;28;854;-82
2022/03/04 01:27:14;;;;;;;;;;;21.00;34.80;;;;;;691148;28;1461;-82
2022/03/04 01:27:35;;;;;;;;;;;21.00;34.70;;;;;;690542;28;855;-82
2022/03/04 01:27:55;;;;;;;;;;;21.00;34.80;;;;;;688701;28;838;-83
2022/03/04 01:28:16;;;;;;;;;;;21.00;34.70;;;;;;686037;28;1174;-82
2022/03/04 01:28:37;;;;;;;;;;;21.00;34.70;;;;;;683072;29;1264;-83
2022/03/04 01:28:57;;;;;;;;;;;21.00;34.80;;;;;;683653;28;839;-82
2022/03/04 01:29:18;;;;;;;;;;;21.00;34.80;;;;;;686038;28;898;-82
2022/03/04 01:29:38;;;;;;;;;;;21.00;34.70;;;;;;685999;28;793;-82
2022/03/04 01:29:59;;;;;;;;;;;21.00;34.70;;;;;;686238;28;819;-82
2022/03/04 01:30:20;;;;;;;;;;;21.00;34.80;;;;;;688849;28;989;-82
2022/03/04 01:30:40;;;;;;;;;;;21.00;34.70;;;;;;688871;28;795;-83
2022/03/04 01:31:01;;;;;;;;;;;21.00;34.80;;;;;;688823;28;807;-82
2022/03/04 01:31:21;;;;;;;;;;;21.00;34.60;;;;;;691263;28;1256;-83
2022/03/04 01:31:42;;;;;;;;;;;21.00;34.70;;;;;;688555;28;1360;-83
2022/03/04 01:32:02;;;;;;;;;;;21.00;34.70;;;;;;688670;28;791;-82
2022/03/04 01:32:23;;;;;;;;;;;21.00;34.70;;;;;;688821;28;937;-82
2022/03/04 01:32:44;;;;;;;;;;;21.00;34.70;;;;;;688838;28;839;-84
2022/03/04 01:33:04;;;;;;;;;;;21.00;34.70;;;;;;688679;28;953;-83
2022/03/04 01:33:25;;;;;;;;;;;21.00;34.70;;;;;;688676;28;866;-83
2022/03/04 01:33:45;;;;;;;;;;;21.00;34.60;;;;;;688521;28;950;-83
2022/03/04 01:34:06;;;;;;;;;;;21.00;34.70;;;;;;688723;28;834;-82
2022/03/04 01:34:26;;;;;;;;;;;21.00;34.70;;;;;;688693;28;1001;-83
2022/03/04 01:34:47;;;;;;;;;;;21.00;34.70;;;;;;688799;28;796;-83
2022/03/04 01:35:08;;;;;;;;;;;21.00;34.70;;;;;;688880;28;815;-83
2022/03/04 01:35:29;;;;;;;;;;;21.00;34.70;;;;;;688617;28;1437;-83
2022/03/04 01:35:49;;;;;;;;;;;21.00;34.80;;;;;;688729;28;882;-83
2022/03/04 01:36:10;;;;;;;;;;;21.00;34.60;;;;;;688633;28;1186;-83
2022/03/04 01:36:33;;;;;;;;;;;21.00;34.70;;;;;;688731;28;862;-82
2022/03/04 01:36:53;;;;;;;;;;;21.00;34.70;;;;;;688787;28;887;-83
2022/03/04 01:37:14;;;;;;;;;;;21.00;34.70;;;;;;686506;28;1211;-83
2022/03/04 01:37:35;;;;;;;;;;;21.00;34.70;;;;;;688630;28;1225;-83
2022/03/04 01:37:56;;;;;;;;;;;21.00;34.70;;;;;;685287;28;1098;-82
2022/03/04 01:38:17;;;;;;;;;;;21.00;34.70;;;;;;683479;29;854;-83
2022/03/04 01:38:37;;;;;;;;;;;21.00;34.70;;;;;;683305;29;862;-83
2022/03/04 01:38:58;;;;;;;;;;;21.00;34.70;;;;;;686351;28;1350;-83
2022/03/04 01:39:19;;;;;;;;;;;21.00;34.70;;;;;;688790;28;944;-82
2022/03/04 01:39:39;;;;;;;;;;;20.90;34.50;;;;;;686299;28;961;-83
2022/03/04 01:40:00;;;;;;;;;;;20.90;34.40;;;;;;688800;28;787;-83
2022/03/04 01:40:21;;;;;;;;;;;20.90;34.40;;;;;;688763;28;862;-83
2022/03/04 01:40:42;;;;;;;;;;;21.00;34.50;;;;;;685945;28;862;-83
2022/03/04 01:41:03;;;;;;;;;;;21.00;34.50;;;;;;685991;28;875;-83
2022/03/04 01:41:24;;;;;;;;;;;21.00;34.50;;;;;;686567;28;839;-83
2022/03/04 01:41:44;;;;;;;;;;;20.90;34.40;;;;;;688689;28;922;-82
2022/03/04 01:42:05;;;;;;;;;;;21.00;34.50;;;;;;688697;28;1370;-83
2022/03/04 01:42:26;;;;;;;;;;;20.90;34.40;;;;;;688591;28;1186;-83
2022/03/04 01:42:46;;;;;;;;;;;21.00;34.50;;;;;;688920;28;915;-83
2022/03/04 01:43:07;;;;;;;;;;;21.00;34.50;;;;;;691375;28;1453;-83
2022/03/04 01:43:27;;;;;;;;;;;20.90;34.50;;;;;;691435;28;862;-82
2022/03/04 01:43:48;;;;;;;;;;;21.00;34.50;;;;;;691410;28;807;-84
2022/03/04 01:44:08;;;;;;;;;;;21.00;34.50;;;;;;691248;28;779;-83
2022/03/04 01:44:29;;;;;;;;;;;20.90;34.40;;;;;;687883;28;1064;-84
2022/03/04 01:44:49;;;;;;;;;;;20.90;34.40;;;;;;689276;28;1890;-83
2022/03/04 01:45:10;;;;;;;;;;;21.00;34.40;;;;;;689111;28;914;-81
2022/03/04 01:45:31;;;;;;;;;;;21.00;34.50;;;;;;688711;28;877;-82
2022/03/04 01:45:52;;;;;;;;;;;21.00;34.50;;;;;;688744;28;827;-83
2022/03/04 01:46:14;;;;;;;;;;;21.00;34.50;;;;;;688656;28;811;-82
2022/03/04 01:46:34;;;;;;;;;;;20.90;34.40;;;;;;691259;28;828;-82
2022/03/04 01:46:55;;;;;;;;;;;21.00;34.60;;;;;;691401;28;845;-83
2022/03/04 01:47:15;;;;;;;;;;;20.90;34.50;;;;;;691421;28;894;-82
2022/03/04 01:47:39;;;;;;;;;;;20.90;34.40;;;;;;691364;28;839;-83
2022/03/04 01:48:00;;;;;;;;;;;20.90;34.50;;;;;;691249;28;885;-83
2022/03/04 01:48:21;;;;;;;;;;;20.90;34.40;;;;;;688678;28;1258;-83
2022/03/04 01:48:42;;;;;;;;;;;20.90;34.40;;;;;;688673;28;858;-83
2022/03/04 01:49:03;;;;;;;;;;;20.90;34.50;;;;;;688615;28;867;-83
2022/03/04 01:49:24;;;;;;;;;;;20.90;34.40;;;;;;688301;28;1329;-83
2022/03/04 01:49:44;;;;;;;;;;;20.90;34.40;;;;;;685417;28;1118;-83
2022/03/04 01:50:05;;;;;;;;;;;20.90;34.40;;;;;;686011;28;870;-83
2022/03/04 01:50:26;;;;;;;;;;;20.90;34.40;;;;;;683146;29;1042;-83
2022/03/04 01:50:48;;;;;;;;;;;20.90;34.40;;;;;;683309;29;1264;-83
2022/03/04 01:51:09;;;;;;;;;;;20.90;34.50;;;;;;683682;28;848;-83
2022/03/04 01:51:29;;;;;;;;;;;20.90;34.50;;;;;;686526;28;823;-84
2022/03/04 01:51:50;;;;;;;;;;;20.90;34.40;;;;;;688595;28;846;-83
2022/03/04 01:52:11;;;;;;;;;;;20.90;34.40;;;;;;688692;28;806;-83
2022/03/04 01:52:31;;;;;;;;;;;20.90;34.30;;;;;;688618;28;966;-82
2022/03/04 01:52:52;;;;;;;;;;;20.90;34.30;;;;;;688789;28;774;-83
2022/03/04 01:53:13;;;;;;;;;;;20.90;34.30;;;;;;688866;28;904;-83
2022/03/04 01:53:33;;;;;;;;;;;20.90;34.40;;;;;;688806;28;859;-83
2022/03/04 01:53:54;;;;;;;;;;;20.90;34.40;;;;;;688964;28;949;-83
2022/03/04 01:54:14;;;;;;;;;;;20.90;34.30;;;;;;688914;28;814;-82
2022/03/04 01:54:35;;;;;;;;;;;20.90;34.30;;;;;;691271;28;1237;-83
2022/03/04 01:54:56;;;;;;;;;;;20.90;34.30;;;;;;691285;28;838;-84
2022/03/04 01:55:16;;;;;;;;;;;20.90;34.30;;;;;;688702;28;1403;-82
2022/03/04 01:55:37;;;;;;;;;;;20.90;34.30;;;;;;685841;28;1091;-83
2022/03/04 01:55:57;;;;;;;;;;;20.90;34.30;;;;;;683140;29;1481;-84
2022/03/04 01:56:18;;;;;;;;;;;20.90;34.30;;;;;;683388;29;791;-82
2022/03/04 01:56:39;;;;;;;;;;;20.90;34.30;;;;;;683270;29;905;-83
2022/03/04 01:57:00;;;;;;;;;;;20.90;34.30;;;;;;683528;28;1239;-83
2022/03/04 01:57:21;;;;;;;;;;;20.90;34.30;;;;;;686323;28;1250;-83
2022/03/04 01:57:42;;;;;;;;;;;20.90;34.20;;;;;;688596;28;886;-83
2022/03/04 01:58:02;;;;;;;;;;;20.90;34.20;;;;;;685780;28;1258;-83
2022/03/04 01:58:24;;;;;;;;;;;20.90;34.20;;;;;;683281;29;1222;-83
2022/03/04 01:58:45;;;;;;;;;;;20.90;34.20;;;;;;683600;28;1426;-83
2022/03/04 01:59:06;;;;;;;;;;;20.90;34.20;;;;;;685424;28;736;-83
2022/03/04 01:59:27;;;;;;;;;;;20.90;34.20;;;;;;683221;28;788;-83
2022/03/04 01:59:47;;;;;;;;;;;20.90;34.20;;;;;;683950;28;779;-82
2022/03/04 02:00:09;;;;;;;;;;;20.90;34.20;;;;;;688950;28;866;-83
2022/03/04 02:00:29;;;;;;;;;;;20.90;34.20;;;;;;688456;28;1249;-83
2022/03/04 02:00:50;;;;;;;;;;;20.90;34.20;;;;;;688794;28;941;-82
2022/03/04 02:01:11;;;;;;;;;;;20.90;34.20;;;;;;688553;28;831;-83
2022/03/04 02:01:32;;;;;;;;;;;20.90;34.20;;;;;;688590;28;909;-83
2022/03/04 02:01:53;;;;;;;;;;;20.90;34.20;;;;;;685964;28;871;-83
2022/03/04 02:02:14;;;;;;;;;;;20.90;34.20;;;;;;686368;28;953;-83
2022/03/04 02:02:34;;;;;;;;;;;20.90;34.20;;;;;;685828;28;1222;-83
2022/03/04 02:02:57;;;;;;;;;;;20.90;34.20;;;;;;685978;28;1429;-83
2022/03/04 02:03:17;;;;;;;;;;;20.90;34.30;;;;;;682894;29;1395;-83
2022/03/04 02:03:38;;;;;;;;;;;20.90;34.20;;;;;;683886;28;871;-83
2022/03/04 02:03:59;;;;;;;;;;;20.90;34.20;;;;;;685928;28;854;-83
2022/03/04 02:04:20;;;;;;;;;;;20.90;34.20;;;;;;683742;28;1439;-83
2022/03/04 02:04:42;;;;;;;;;;;20.90;34.20;;;;;;683186;29;2012;-83
2022/03/04 02:05:03;;;;;;;;;;;20.90;34.30;;;;;;683704;28;894;-83
2022/03/04 02:05:24;;;;;;;;;;;20.90;34.20;;;;;;686059;28;830;-83
2022/03/04 02:05:45;;;;;;;;;;;20.90;34.20;;;;;;685939;28;863;-83
2022/03/04 02:06:06;;;;;;;;;;;20.90;34.20;;;;;;686584;28;804;-83